sensor_id;sensor_type;location;lat;lon;timestamp;pressure;altitude;pressure_sealevel;temperature
75811;BMP280;64449;50.016;19.954;2024-01-25T00:01:06;98351.18;;;8.42
75811;BMP280;64449;50.016;19.954;2024-01-25T00:03:31;98348.61;;;8.42
75811;BMP280;64449;50.016;19.954;2024-01-25T00:05:57;98353.20;;;8.42
75811;BMP280;64449;50.016;19.954;2024-01-25T00:08:23;98351.98;;;8.44
75811;BMP280;64449;50.016;19.954;2024-01-25T00:10:48;98347.17;;;8.45
75811;BMP280;64449;50.016;19.954;2024-01-25T00:13:14;98351.14;;;8.47
75811;BMP280;64449;50.016;19.954;2024-01-25T00:15:39;98364.09;;;8.49
75811;BMP280;64449;50.016;19.954;2024-01-25T00:18:05;98359.13;;;8.50
75811;BMP280;64449;50.016;19.954;2024-01-25T00:20:30;98364.27;;;8.52
75811;BMP280;64449;50.016;19.954;2024-01-25T00:22:55;98371.80;;;8.52
75811;BMP280;64449;50.016;19.954;2024-01-25T00:25:21;98369.94;;;8.51
75811;BMP280;64449;50.016;19.954;2024-01-25T00:27:46;98375.36;;;8.51
75811;BMP280;64449;50.016;19.954;2024-01-25T00:30:13;98373.09;;;8.50
75811;BMP280;64449;50.016;19.954;2024-01-25T00:32:38;98374.45;;;8.49
75811;BMP280;64449;50.016;19.954;2024-01-25T00:35:04;98378.88;;;8.49
75811;BMP280;64449;50.016;19.954;2024-01-25T00:37:30;98373.52;;;8.48
75811;BMP280;64449;50.016;19.954;2024-01-25T00:39:56;98374.33;;;8.49
75811;BMP280;64449;50.016;19.954;2024-01-25T00:42:23;98369.35;;;8.49
75811;BMP280;64449;50.016;19.954;2024-01-25T00:44:49;98368.82;;;8.49
75811;BMP280;64449;50.016;19.954;2024-01-25T00:47:15;98372.19;;;8.49
75811;BMP280;64449;50.016;19.954;2024-01-25T00:49:41;98367.20;;;8.51
75811;BMP280;64449;50.016;19.954;2024-01-25T00:52:07;98370.53;;;8.53
75811;BMP280;64449;50.016;19.954;2024-01-25T00:54:33;98369.33;;;8.55
75811;BMP280;64449;50.016;19.954;2024-01-25T00:56:58;98374.97;;;8.57
75811;BMP280;64449;50.016;19.954;2024-01-25T00:59:24;98385.27;;;8.61
75811;BMP280;64449;50.016;19.954;2024-01-25T01:01:52;98375.97;;;8.63
75811;BMP280;64449;50.016;19.954;2024-01-25T01:04:18;98372.33;;;8.63
75811;BMP280;64449;50.016;19.954;2024-01-25T01:06:44;98380.29;;;8.64
75811;BMP280;64449;50.016;19.954;2024-01-25T01:09:09;98378.48;;;8.64
75811;BMP280;64449;50.016;19.954;2024-01-25T01:11:36;98379.98;;;8.64
75811;BMP280;64449;50.016;19.954;2024-01-25T01:14:02;98366.13;;;8.65
75811;BMP280;64449;50.016;19.954;2024-01-25T01:16:27;98361.56;;;8.66
75811;BMP280;64449;50.016;19.954;2024-01-25T01:18:56;98360.51;;;8.66
75811;BMP280;64449;50.016;19.954;2024-01-25T01:21:21;98365.80;;;8.67
75811;BMP280;64449;50.016;19.954;2024-01-25T01:23:46;98369.64;;;8.67
75811;BMP280;64449;50.016;19.954;2024-01-25T01:26:12;98368.42;;;8.68
75811;BMP280;64449;50.016;19.954;2024-01-25T01:28:37;98356.73;;;8.68
75811;BMP280;64449;50.016;19.954;2024-01-25T01:31:02;98356.61;;;8.69
75811;BMP280;64449;50.016;19.954;2024-01-25T01:33:28;98355.91;;;8.69
75811;BMP280;64449;50.016;19.954;2024-01-25T01:35:53;98357.59;;;8.69
75811;BMP280;64449;50.016;19.954;2024-01-25T01:38:19;98353.36;;;8.70
75811;BMP280;64449;50.016;19.954;2024-01-25T01:40:44;98344.55;;;8.70
75811;BMP280;64449;50.016;19.954;2024-01-25T01:43:20;98353.67;;;8.70
75811;BMP280;64449;50.016;19.954;2024-01-25T01:45:48;98354.23;;;8.70
75811;BMP280;64449;50.016;19.954;2024-01-25T01:48:15;98350.90;;;8.70
75811;BMP280;64449;50.016;19.954;2024-01-25T01:50:42;98354.98;;;8.69
75811;BMP280;64449;50.016;19.954;2024-01-25T01:53:08;98353.56;;;8.68
75811;BMP280;64449;50.016;19.954;2024-01-25T01:55:33;98359.46;;;8.67
75811;BMP280;64449;50.016;19.954;2024-01-25T01:57:59;98359.73;;;8.66
75811;BMP280;64449;50.016;19.954;2024-01-25T02:00:25;98345.59;;;8.64
75811;BMP280;64449;50.016;19.954;2024-01-25T02:02:50;98368.68;;;8.63
75811;BMP280;64449;50.016;19.954;2024-01-25T02:05:16;98347.10;;;8.63
75811;BMP280;64449;50.016;19.954;2024-01-25T02:07:42;98345.67;;;8.61
75811;BMP280;64449;50.016;19.954;2024-01-25T02:10:08;98342.66;;;8.61
75811;BMP280;64449;50.016;19.954;2024-01-25T02:12:35;98355.30;;;8.61
75811;BMP280;64449;50.016;19.954;2024-01-25T02:15:01;98349.86;;;8.60
75811;BMP280;64449;50.016;19.954;2024-01-25T02:17:26;98353.58;;;8.59
75811;BMP280;64449;50.016;19.954;2024-01-25T02:19:52;98358.70;;;8.58
75811;BMP280;64449;50.016;19.954;2024-01-25T02:22:19;98355.47;;;8.58
75811;BMP280;64449;50.016;19.954;2024-01-25T02:24:44;98357.69;;;8.56
75811;BMP280;64449;50.016;19.954;2024-01-25T02:27:10;98350.44;;;8.55
75811;BMP280;64449;50.016;19.954;2024-01-25T02:29:36;98356.14;;;8.55
75811;BMP280;64449;50.016;19.954;2024-01-25T02:32:02;98356.59;;;8.54
75811;BMP280;64449;50.016;19.954;2024-01-25T02:34:27;98350.98;;;8.53
75811;BMP280;64449;50.016;19.954;2024-01-25T02:36:53;98344.23;;;8.51
75811;BMP280;64449;50.016;19.954;2024-01-25T02:39:18;98345.47;;;8.51
75811;BMP280;64449;50.016;19.954;2024-01-25T02:41:44;98344.07;;;8.48
75811;BMP280;64449;50.016;19.954;2024-01-25T02:44:11;98335.09;;;8.47
75811;BMP280;64449;50.016;19.954;2024-01-25T02:46:36;98339.25;;;8.46
75811;BMP280;64449;50.016;19.954;2024-01-25T02:49:03;98336.61;;;8.45
75811;BMP280;64449;50.016;19.954;2024-01-25T02:51:28;98336.84;;;8.45
75811;BMP280;64449;50.016;19.954;2024-01-25T02:53:53;98331.92;;;8.45
75811;BMP280;64449;50.016;19.954;2024-01-25T02:56:19;98335.68;;;8.46
75811;BMP280;64449;50.016;19.954;2024-01-25T02:58:44;98331.04;;;8.47
75811;BMP280;64449;50.016;19.954;2024-01-25T03:01:10;98336.81;;;8.48
75811;BMP280;64449;50.016;19.954;2024-01-25T03:03:35;98340.55;;;8.49
75811;BMP280;64449;50.016;19.954;2024-01-25T03:06:02;98339.44;;;8.50
75811;BMP280;64449;50.016;19.954;2024-01-25T03:08:27;98336.47;;;8.50
75811;BMP280;64449;50.016;19.954;2024-01-25T03:10:53;98352.73;;;8.51
75811;BMP280;64449;50.016;19.954;2024-01-25T03:13:18;98348.17;;;8.51
75811;BMP280;64449;50.016;19.954;2024-01-25T03:15:44;98351.05;;;8.52
75811;BMP280;64449;50.016;19.954;2024-01-25T03:18:10;98345.01;;;8.52
75811;BMP280;64449;50.016;19.954;2024-01-25T03:20:36;98351.98;;;8.52
75811;BMP280;64449;50.016;19.954;2024-01-25T03:23:01;98348.27;;;8.53
75811;BMP280;64449;50.016;19.954;2024-01-25T03:25:28;98349.73;;;8.53
75811;BMP280;64449;50.016;19.954;2024-01-25T03:27:53;98357.66;;;8.53
75811;BMP280;64449;50.016;19.954;2024-01-25T03:30:19;98345.97;;;8.53
75811;BMP280;64449;50.016;19.954;2024-01-25T03:32:45;98341.46;;;8.53
75811;BMP280;64449;50.016;19.954;2024-01-25T03:35:11;98341.16;;;8.53
75811;BMP280;64449;50.016;19.954;2024-01-25T03:37:37;98337.98;;;8.53
75811;BMP280;64449;50.016;19.954;2024-01-25T03:40:03;98338.36;;;8.54
75811;BMP280;64449;50.016;19.954;2024-01-25T03:42:28;98342.85;;;8.54
75811;BMP280;64449;50.016;19.954;2024-01-25T03:44:54;98344.41;;;8.53
75811;BMP280;64449;50.016;19.954;2024-01-25T03:47:19;98351.35;;;8.52
75811;BMP280;64449;50.016;19.954;2024-01-25T03:49:45;98369.42;;;8.53
75811;BMP280;64449;50.016;19.954;2024-01-25T03:52:10;98382.02;;;8.53
75811;BMP280;64449;50.016;19.954;2024-01-25T03:54:35;98377.70;;;8.54
75811;BMP280;64449;50.016;19.954;2024-01-25T03:57:01;98386.15;;;8.54
75811;BMP280;64449;50.016;19.954;2024-01-25T03:59:26;98390.14;;;8.53
75811;BMP280;64449;50.016;19.954;2024-01-25T04:01:52;98389.64;;;8.53
75811;BMP280;64449;50.016;19.954;2024-01-25T04:04:17;98391.24;;;8.52
75811;BMP280;64449;50.016;19.954;2024-01-25T04:06:44;98398.31;;;8.49
75811;BMP280;64449;50.016;19.954;2024-01-25T04:09:11;98403.09;;;8.44
75811;BMP280;64449;50.016;19.954;2024-01-25T04:11:37;98401.71;;;8.38
75811;BMP280;64449;50.016;19.954;2024-01-25T04:14:03;98405.92;;;8.33
75811;BMP280;64449;50.016;19.954;2024-01-25T04:16:29;98388.21;;;8.26
75811;BMP280;64449;50.016;19.954;2024-01-25T04:18:55;98386.89;;;8.21
75811;BMP280;64449;50.016;19.954;2024-01-25T04:21:20;98392.70;;;8.17
75811;BMP280;64449;50.016;19.954;2024-01-25T04:23:45;98387.54;;;8.14
75811;BMP280;64449;50.016;19.954;2024-01-25T04:26:11;98392.91;;;8.12
75811;BMP280;64449;50.016;19.954;2024-01-25T04:28:36;98383.76;;;8.09
75811;BMP280;64449;50.016;19.954;2024-01-25T04:31:02;98376.14;;;8.05
75811;BMP280;64449;50.016;19.954;2024-01-25T04:33:29;98374.15;;;8.03
75811;BMP280;64449;50.016;19.954;2024-01-25T04:35:55;98369.89;;;8.02
75811;BMP280;64449;50.016;19.954;2024-01-25T04:38:21;98376.13;;;8.00
75811;BMP280;64449;50.016;19.954;2024-01-25T04:40:46;98367.99;;;8.00
75811;BMP280;64449;50.016;19.954;2024-01-25T04:43:12;98373.23;;;8.00
75811;BMP280;64449;50.016;19.954;2024-01-25T04:45:38;98370.43;;;8.01
75811;BMP280;64449;50.016;19.954;2024-01-25T04:48:05;98365.80;;;8.04
75811;BMP280;64449;50.016;19.954;2024-01-25T04:50:30;98367.25;;;8.06
75811;BMP280;64449;50.016;19.954;2024-01-25T04:52:56;98365.01;;;8.09
75811;BMP280;64449;50.016;19.954;2024-01-25T04:55:21;98370.78;;;8.11
75811;BMP280;64449;50.016;19.954;2024-01-25T04:57:46;98371.70;;;8.13
75811;BMP280;64449;50.016;19.954;2024-01-25T05:00:13;98365.45;;;8.14
75811;BMP280;64449;50.016;19.954;2024-01-25T05:02:39;98362.80;;;8.15
75811;BMP280;64449;50.016;19.954;2024-01-25T05:05:05;98358.95;;;8.16
75811;BMP280;64449;50.016;19.954;2024-01-25T05:07:30;98356.38;;;8.17
75811;BMP280;64449;50.016;19.954;2024-01-25T05:09:55;98360.46;;;8.19
75811;BMP280;64449;50.016;19.954;2024-01-25T05:12:21;98364.64;;;8.20
75811;BMP280;64449;50.016;19.954;2024-01-25T05:14:46;98363.97;;;8.21
75811;BMP280;64449;50.016;19.954;2024-01-25T05:17:11;98363.86;;;8.21
75811;BMP280;64449;50.016;19.954;2024-01-25T05:19:37;98358.03;;;8.21
75811;BMP280;64449;50.016;19.954;2024-01-25T05:22:02;98388.75;;;8.22
75811;BMP280;64449;50.016;19.954;2024-01-25T05:24:32;98374.48;;;8.21
75811;BMP280;64449;50.016;19.954;2024-01-25T05:26:58;98376.29;;;8.19
75811;BMP280;64449;50.016;19.954;2024-01-25T05:29:23;98376.48;;;8.18
75811;BMP280;64449;50.016;19.954;2024-01-25T05:31:49;98370.53;;;8.17
75811;BMP280;64449;50.016;19.954;2024-01-25T05:34:15;98384.13;;;8.16
75811;BMP280;64449;50.016;19.954;2024-01-25T05:36:41;98385.20;;;8.15
75811;BMP280;64449;50.016;19.954;2024-01-25T05:39:07;98387.50;;;8.14
75811;BMP280;64449;50.016;19.954;2024-01-25T05:41:33;98381.76;;;8.12
75811;BMP280;64449;50.016;19.954;2024-01-25T05:43:59;98387.38;;;8.12
75811;BMP280;64449;50.016;19.954;2024-01-25T05:46:25;98383.58;;;8.11
75811;BMP280;64449;50.016;19.954;2024-01-25T05:48:50;98387.08;;;8.11
75811;BMP280;64449;50.016;19.954;2024-01-25T05:51:15;98383.90;;;8.11
75811;BMP280;64449;50.016;19.954;2024-01-25T05:53:41;98376.07;;;8.09
75811;BMP280;64449;50.016;19.954;2024-01-25T05:56:06;98383.91;;;8.09
75811;BMP280;64449;50.016;19.954;2024-01-25T05:58:32;98374.52;;;8.08
75811;BMP280;64449;50.016;19.954;2024-01-25T06:00:57;98383.06;;;8.07
75811;BMP280;64449;50.016;19.954;2024-01-25T06:03:22;98376.48;;;8.07
75811;BMP280;64449;50.016;19.954;2024-01-25T06:05:48;98375.70;;;8.05
75811;BMP280;64449;50.016;19.954;2024-01-25T06:08:13;98375.20;;;8.04
75811;BMP280;64449;50.016;19.954;2024-01-25T06:10:39;98389.11;;;8.04
75811;BMP280;64449;50.016;19.954;2024-01-25T06:13:05;98387.25;;;8.04
75811;BMP280;64449;50.016;19.954;2024-01-25T06:15:30;98389.52;;;8.04
75811;BMP280;64449;50.016;19.954;2024-01-25T06:17:56;98381.42;;;8.02
75811;BMP280;64449;50.016;19.954;2024-01-25T06:20:22;98370.73;;;8.00
75811;BMP280;64449;50.016;19.954;2024-01-25T06:22:48;98366.04;;;7.98
75811;BMP280;64449;50.016;19.954;2024-01-25T06:25:14;98372.72;;;7.97
75811;BMP280;64449;50.016;19.954;2024-01-25T06:27:39;98378.75;;;7.96
75811;BMP280;64449;50.016;19.954;2024-01-25T06:30:05;98380.89;;;7.95
75811;BMP280;64449;50.016;19.954;2024-01-25T06:32:31;98392.41;;;7.94
75811;BMP280;64449;50.016;19.954;2024-01-25T06:34:56;98392.59;;;7.93
75811;BMP280;64449;50.016;19.954;2024-01-25T06:37:22;98392.99;;;7.91
75811;BMP280;64449;50.016;19.954;2024-01-25T06:39:47;98385.70;;;7.89
75811;BMP280;64449;50.016;19.954;2024-01-25T06:42:13;98381.86;;;7.88
75811;BMP280;64449;50.016;19.954;2024-01-25T06:44:38;98387.14;;;7.85
75811;BMP280;64449;50.016;19.954;2024-01-25T06:47:04;98397.38;;;7.85
75811;BMP280;64449;50.016;19.954;2024-01-25T06:49:29;98401.33;;;7.83
75811;BMP280;64449;50.016;19.954;2024-01-25T06:51:55;98401.96;;;7.80
75811;BMP280;64449;50.016;19.954;2024-01-25T06:54:20;98410.71;;;7.78
75811;BMP280;64449;50.016;19.954;2024-01-25T06:56:45;98414.18;;;7.76
75811;BMP280;64449;50.016;19.954;2024-01-25T06:59:11;98412.48;;;7.75
75811;BMP280;64449;50.016;19.954;2024-01-25T07:01:36;98411.08;;;7.72
75811;BMP280;64449;50.016;19.954;2024-01-25T07:04:02;98407.52;;;7.69
75811;BMP280;64449;50.016;19.954;2024-01-25T07:06:29;98412.84;;;7.66
75811;BMP280;64449;50.016;19.954;2024-01-25T07:08:54;98413.95;;;7.63
75811;BMP280;64449;50.016;19.954;2024-01-25T07:11:20;98418.34;;;7.62
75811;BMP280;64449;50.016;19.954;2024-01-25T07:13:46;98413.08;;;7.60
75811;BMP280;64449;50.016;19.954;2024-01-25T07:16:12;98407.73;;;7.58
75811;BMP280;64449;50.016;19.954;2024-01-25T07:18:37;98404.42;;;7.54
75811;BMP280;64449;50.016;19.954;2024-01-25T07:21:03;98398.86;;;7.51
75811;BMP280;64449;50.016;19.954;2024-01-25T07:23:33;98407.95;;;7.50
75811;BMP280;64449;50.016;19.954;2024-01-25T07:25:58;98404.95;;;7.48
75811;BMP280;64449;50.016;19.954;2024-01-25T07:28:24;98404.23;;;7.46
75811;BMP280;64449;50.016;19.954;2024-01-25T07:30:50;98400.75;;;7.45
75811;BMP280;64449;50.016;19.954;2024-01-25T07:33:16;98402.36;;;7.44
75811;BMP280;64449;50.016;19.954;2024-01-25T07:35:42;98401.00;;;7.43
75811;BMP280;64449;50.016;19.954;2024-01-25T07:38:14;98398.56;;;7.42
75811;BMP280;64449;50.016;19.954;2024-01-25T07:40:40;98402.49;;;7.42
75811;BMP280;64449;50.016;19.954;2024-01-25T07:43:06;98396.13;;;7.42
75811;BMP280;64449;50.016;19.954;2024-01-25T07:45:32;98409.42;;;7.44
75811;BMP280;64449;50.016;19.954;2024-01-25T07:47:57;98399.70;;;7.43
75811;BMP280;64449;50.016;19.954;2024-01-25T07:50:23;98405.84;;;7.43
75811;BMP280;64449;50.016;19.954;2024-01-25T07:52:48;98417.23;;;7.44
75811;BMP280;64449;50.016;19.954;2024-01-25T07:55:15;98425.74;;;7.44
75811;BMP280;64449;50.016;19.954;2024-01-25T07:57:41;98422.98;;;7.43
75811;BMP280;64449;50.016;19.954;2024-01-25T08:00:07;98433.51;;;7.43
75811;BMP280;64449;50.016;19.954;2024-01-25T08:02:34;98437.12;;;7.42
75811;BMP280;64449;50.016;19.954;2024-01-25T08:05:00;98439.02;;;7.41
75811;BMP280;64449;50.016;19.954;2024-01-25T08:07:25;98447.77;;;7.41
75811;BMP280;64449;50.016;19.954;2024-01-25T08:09:51;98458.46;;;7.41
75811;BMP280;64449;50.016;19.954;2024-01-25T08:12:18;98457.61;;;7.40
75811;BMP280;64449;50.016;19.954;2024-01-25T08:14:43;98461.77;;;7.39
75811;BMP280;64449;50.016;19.954;2024-01-25T08:17:09;98464.36;;;7.38
75811;BMP280;64449;50.016;19.954;2024-01-25T08:19:35;98458.29;;;7.36
75811;BMP280;64449;50.016;19.954;2024-01-25T08:22:01;98460.78;;;7.32
75811;BMP280;64449;50.016;19.954;2024-01-25T08:24:27;98454.95;;;7.31
75811;BMP280;64449;50.016;19.954;2024-01-25T08:26:52;98451.52;;;7.30
75811;BMP280;64449;50.016;19.954;2024-01-25T08:29:18;98453.17;;;7.27
75811;BMP280;64449;50.016;19.954;2024-01-25T08:31:43;98459.75;;;7.24
75811;BMP280;64449;50.016;19.954;2024-01-25T08:34:08;98453.27;;;7.21
75811;BMP280;64449;50.016;19.954;2024-01-25T08:36:34;98448.34;;;7.18
75811;BMP280;64449;50.016;19.954;2024-01-25T08:38:59;98458.01;;;7.16
75811;BMP280;64449;50.016;19.954;2024-01-25T08:41:25;98447.98;;;7.13
75811;BMP280;64449;50.016;19.954;2024-01-25T08:43:50;98445.11;;;7.11
75811;BMP280;64449;50.016;19.954;2024-01-25T08:46:16;98447.27;;;7.10
75811;BMP280;64449;50.016;19.954;2024-01-25T08:48:41;98450.02;;;7.10
75811;BMP280;64449;50.016;19.954;2024-01-25T08:51:08;98449.98;;;7.08
75811;BMP280;64449;50.016;19.954;2024-01-25T08:53:33;98454.23;;;7.07
75811;BMP280;64449;50.016;19.954;2024-01-25T08:55:59;98451.15;;;7.05
75811;BMP280;64449;50.016;19.954;2024-01-25T08:58:25;98456.30;;;7.04
75811;BMP280;64449;50.016;19.954;2024-01-25T09:00:51;98453.41;;;7.03
75811;BMP280;64449;50.016;19.954;2024-01-25T09:03:16;98448.58;;;7.02
75811;BMP280;64449;50.016;19.954;2024-01-25T09:05:41;98449.07;;;7.03
75811;BMP280;64449;50.016;19.954;2024-01-25T09:08:15;98452.98;;;7.05
75811;BMP280;64449;50.016;19.954;2024-01-25T09:10:41;98442.84;;;7.08
75811;BMP280;64449;50.016;19.954;2024-01-25T09:13:08;98442.06;;;7.15
75811;BMP280;64449;50.016;19.954;2024-01-25T09:15:33;98437.31;;;7.20
75811;BMP280;64449;50.016;19.954;2024-01-25T09:17:59;98441.39;;;7.22
75811;BMP280;64449;50.016;19.954;2024-01-25T09:20:24;98440.95;;;7.23
75811;BMP280;64449;50.016;19.954;2024-01-25T09:22:51;98445.16;;;7.24
75811;BMP280;64449;50.016;19.954;2024-01-25T09:25:19;98450.03;;;7.24
75811;BMP280;64449;50.016;19.954;2024-01-25T09:27:44;98455.30;;;7.23
75811;BMP280;64449;50.016;19.954;2024-01-25T09:30:10;98450.11;;;7.24
75811;BMP280;64449;50.016;19.954;2024-01-25T09:32:36;98451.33;;;7.24
75811;BMP280;64449;50.016;19.954;2024-01-25T09:35:01;98453.95;;;7.26
75811;BMP280;64449;50.016;19.954;2024-01-25T09:37:26;98455.11;;;7.28
75811;BMP280;64449;50.016;19.954;2024-01-25T09:39:52;98440.89;;;7.30
75811;BMP280;64449;50.016;19.954;2024-01-25T09:42:18;98441.30;;;7.30
75811;BMP280;64449;50.016;19.954;2024-01-25T09:44:44;98441.73;;;7.30
75811;BMP280;64449;50.016;19.954;2024-01-25T09:47:11;98453.49;;;7.29
75811;BMP280;64449;50.016;19.954;2024-01-25T09:49:37;98456.38;;;7.29
75811;BMP280;64449;50.016;19.954;2024-01-25T09:52:03;98462.18;;;7.30
75811;BMP280;64449;50.016;19.954;2024-01-25T09:54:34;98459.16;;;7.33
75811;BMP280;64449;50.016;19.954;2024-01-25T09:57:06;98457.02;;;7.39
75811;BMP280;64449;50.016;19.954;2024-01-25T09:59:32;98452.15;;;7.45
75811;BMP280;64449;50.016;19.954;2024-01-25T10:02:01;98454.13;;;7.50
75811;BMP280;64449;50.016;19.954;2024-01-25T10:04:26;98459.61;;;7.54
75811;BMP280;64449;50.016;19.954;2024-01-25T10:06:55;98462.35;;;7.57
75811;BMP280;64449;50.016;19.954;2024-01-25T10:09:21;98465.23;;;7.62
75811;BMP280;64449;50.016;19.954;2024-01-25T10:11:48;98461.01;;;7.67
75811;BMP280;64449;50.016;19.954;2024-01-25T10:14:13;98456.73;;;7.73
75811;BMP280;64449;50.016;19.954;2024-01-25T10:16:38;98469.87;;;7.78
75811;BMP280;64449;50.016;19.954;2024-01-25T10:19:06;98473.01;;;7.80
75811;BMP280;64449;50.016;19.954;2024-01-25T10:21:32;98465.30;;;7.79
75811;BMP280;64449;50.016;19.954;2024-01-25T10:24:00;98467.25;;;7.78
75811;BMP280;64449;50.016;19.954;2024-01-25T10:26:26;98471.65;;;7.76
75811;BMP280;64449;50.016;19.954;2024-01-25T10:28:54;98472.55;;;7.76
75811;BMP280;64449;50.016;19.954;2024-01-25T10:31:22;98474.73;;;7.75
75811;BMP280;64449;50.016;19.954;2024-01-25T10:33:48;98464.11;;;7.75
75811;BMP280;64449;50.016;19.954;2024-01-25T10:36:14;98480.23;;;7.75
75811;BMP280;64449;50.016;19.954;2024-01-25T10:38:40;98471.07;;;7.75
75811;BMP280;64449;50.016;19.954;2024-01-25T10:41:07;98468.67;;;7.74
75811;BMP280;64449;50.016;19.954;2024-01-25T10:43:33;98469.45;;;7.72
75811;BMP280;64449;50.016;19.954;2024-01-25T10:45:59;98471.45;;;7.69
75811;BMP280;64449;50.016;19.954;2024-01-25T10:48:25;98470.21;;;7.67
75811;BMP280;64449;50.016;19.954;2024-01-25T10:50:55;98471.63;;;7.66
75811;BMP280;64449;50.016;19.954;2024-01-25T10:53:24;98468.80;;;7.66
75811;BMP280;64449;50.016;19.954;2024-01-25T10:55:50;98471.25;;;7.67
75811;BMP280;64449;50.016;19.954;2024-01-25T10:58:16;98466.90;;;7.67
75811;BMP280;64449;50.016;19.954;2024-01-25T11:00:52;98467.52;;;7.69
75811;BMP280;64449;50.016;19.954;2024-01-25T11:03:28;98476.73;;;7.71
75811;BMP280;64449;50.016;19.954;2024-01-25T11:05:55;98472.55;;;7.75
75811;BMP280;64449;50.016;19.954;2024-01-25T11:08:21;98487.93;;;7.77
75811;BMP280;64449;50.016;19.954;2024-01-25T11:10:50;98477.58;;;7.77
75811;BMP280;64449;50.016;19.954;2024-01-25T11:13:23;98476.20;;;7.77
75811;BMP280;64449;50.016;19.954;2024-01-25T11:15:51;98478.91;;;7.76
75811;BMP280;64449;50.016;19.954;2024-01-25T11:18:16;98480.54;;;7.76
75811;BMP280;64449;50.016;19.954;2024-01-25T11:20:42;98477.67;;;7.76
75811;BMP280;64449;50.016;19.954;2024-01-25T11:23:07;98478.70;;;7.76
75811;BMP280;64449;50.016;19.954;2024-01-25T11:25:37;98470.80;;;7.75
75811;BMP280;64449;50.016;19.954;2024-01-25T11:28:04;98462.60;;;7.76
75811;BMP280;64449;50.016;19.954;2024-01-25T11:30:33;98459.80;;;7.78
75811;BMP280;64449;50.016;19.954;2024-01-25T11:33:00;98462.54;;;7.80
75811;BMP280;64449;50.016;19.954;2024-01-25T11:35:26;98465.76;;;7.83
75811;BMP280;64449;50.016;19.954;2024-01-25T11:37:52;98474.99;;;7.87
75811;BMP280;64449;50.016;19.954;2024-01-25T11:40:18;98474.83;;;7.93
75811;BMP280;64449;50.016;19.954;2024-01-25T11:42:47;98473.95;;;7.96
75811;BMP280;64449;50.016;19.954;2024-01-25T11:45:13;98477.45;;;8.00
75811;BMP280;64449;50.016;19.954;2024-01-25T11:47:40;98477.38;;;8.05
75811;BMP280;64449;50.016;19.954;2024-01-25T11:50:08;98491.28;;;8.10
75811;BMP280;64449;50.016;19.954;2024-01-25T11:52:34;98500.95;;;8.15
75811;BMP280;64449;50.016;19.954;2024-01-25T11:55:03;98493.65;;;8.18
75811;BMP280;64449;50.016;19.954;2024-01-25T11:57:37;98497.48;;;8.20
75811;BMP280;64449;50.016;19.954;2024-01-25T12:00:04;98502.12;;;8.18
75811;BMP280;64449;50.016;19.954;2024-01-25T12:02:31;98501.85;;;8.18
75811;BMP280;64449;50.016;19.954;2024-01-25T12:04:57;98505.08;;;8.21
75811;BMP280;64449;50.016;19.954;2024-01-25T12:07:23;98515.35;;;8.21
75811;BMP280;64449;50.016;19.954;2024-01-25T12:10:06;98517.62;;;8.19
75811;BMP280;64449;50.016;19.954;2024-01-25T12:12:35;98515.38;;;8.17
75811;BMP280;64449;50.016;19.954;2024-01-25T12:15:01;98520.52;;;8.19
75811;BMP280;64449;50.016;19.954;2024-01-25T12:17:31;98523.47;;;8.18
75811;BMP280;64449;50.016;19.954;2024-01-25T12:19:59;98529.36;;;8.19
75811;BMP280;64449;50.016;19.954;2024-01-25T12:22:29;98529.61;;;8.21
75811;BMP280;64449;50.016;19.954;2024-01-25T12:24:55;98530.08;;;8.22
75811;BMP280;64449;50.016;19.954;2024-01-25T12:27:22;98526.23;;;8.22
75811;BMP280;64449;50.016;19.954;2024-01-25T12:29:49;98519.17;;;8.24
75811;BMP280;64449;50.016;19.954;2024-01-25T12:32:14;98535.70;;;8.25
75811;BMP280;64449;50.016;19.954;2024-01-25T12:34:40;98535.17;;;8.24
75811;BMP280;64449;50.016;19.954;2024-01-25T12:37:07;98535.05;;;8.22
75811;BMP280;64449;50.016;19.954;2024-01-25T12:39:33;98532.23;;;8.19
75811;BMP280;64449;50.016;19.954;2024-01-25T12:41:58;98528.46;;;8.18
75811;BMP280;64449;50.016;19.954;2024-01-25T12:44:24;98530.41;;;8.17
75811;BMP280;64449;50.016;19.954;2024-01-25T12:46:50;98519.67;;;8.18
75811;BMP280;64449;50.016;19.954;2024-01-25T12:49:15;98521.80;;;8.21
75811;BMP280;64449;50.016;19.954;2024-01-25T12:51:40;98525.14;;;8.22
75811;BMP280;64449;50.016;19.954;2024-01-25T12:54:07;98521.54;;;8.24
75811;BMP280;64449;50.016;19.954;2024-01-25T12:56:32;98523.86;;;8.22
75811;BMP280;64449;50.016;19.954;2024-01-25T12:58:58;98522.47;;;8.20
75811;BMP280;64449;50.016;19.954;2024-01-25T13:01:23;98534.20;;;8.20
75811;BMP280;64449;50.016;19.954;2024-01-25T13:03:49;98530.13;;;8.21
75811;BMP280;64449;50.016;19.954;2024-01-25T13:06:15;98543.31;;;8.21
75811;BMP280;64449;50.016;19.954;2024-01-25T13:08:40;98534.57;;;8.20
75811;BMP280;64449;50.016;19.954;2024-01-25T13:11:06;98540.31;;;8.20
75811;BMP280;64449;50.016;19.954;2024-01-25T13:13:31;98543.04;;;8.20
75811;BMP280;64449;50.016;19.954;2024-01-25T13:15:57;98549.45;;;8.22
75811;BMP280;64449;50.016;19.954;2024-01-25T13:18:22;98553.43;;;8.23
75811;BMP280;64449;50.016;19.954;2024-01-25T13:20:47;98557.09;;;8.23
75811;BMP280;64449;50.016;19.954;2024-01-25T13:23:13;98556.50;;;8.25
75811;BMP280;64449;50.016;19.954;2024-01-25T13:25:38;98558.84;;;8.25
75811;BMP280;64449;50.016;19.954;2024-01-25T13:28:04;98564.40;;;8.25
75811;BMP280;64449;50.016;19.954;2024-01-25T13:30:30;98561.67;;;8.25
75811;BMP280;64449;50.016;19.954;2024-01-25T13:32:55;98568.98;;;8.29
75811;BMP280;64449;50.016;19.954;2024-01-25T13:35:21;98568.50;;;8.30
75811;BMP280;64449;50.016;19.954;2024-01-25T13:37:46;98574.20;;;8.30
75811;BMP280;64449;50.016;19.954;2024-01-25T13:40:11;98570.76;;;8.30
75811;BMP280;64449;50.016;19.954;2024-01-25T13:42:37;98569.61;;;8.28
75811;BMP280;64449;50.016;19.954;2024-01-25T13:45:03;98568.05;;;8.28
75811;BMP280;64449;50.016;19.954;2024-01-25T13:47:29;98572.27;;;8.28
75811;BMP280;64449;50.016;19.954;2024-01-25T13:49:54;98570.30;;;8.27
75811;BMP280;64449;50.016;19.954;2024-01-25T13:52:20;98573.34;;;8.25
75811;BMP280;64449;50.016;19.954;2024-01-25T13:54:46;98576.73;;;8.25
75811;BMP280;64449;50.016;19.954;2024-01-25T13:57:14;98576.80;;;8.23
75811;BMP280;64449;50.016;19.954;2024-01-25T13:59:40;98581.45;;;8.22
75811;BMP280;64449;50.016;19.954;2024-01-25T14:02:05;98581.46;;;8.19